DEUFD EDLW-ZZZZ

Flight info

Callsign DEUFD
Flight time N/A
Altitude 2000
Route VFR
Aircraft SR22/L-V/N

Departure

Time 2026-04-29 16:58
Airport Dortmund Airport (EDLW)

Arrival

Time N/A
Airport ZZZZ
Time Latitude Longitude Altitude Speed Heading
2026-04-29 16:58 51.55109 7.62309 1024 ft 145 kts 351°
2026-04-29 16:58 51.56067 7.61889 1244 ft 145 kts 353°
2026-04-29 16:59 51.57107 7.61459 1252 ft 157 kts 356°
2026-04-29 16:59 51.58178 7.61120 1477 ft 155 kts 356°
2026-04-29 16:59 51.59213 7.61052 1718 ft 148 kts 13°
2026-04-29 16:59 51.60236 7.61203 1975 ft 148 kts 14°
2026-04-29 17:00 51.61258 7.61345 2224 ft 149 kts 11°
2026-04-29 17:00 51.62301 7.61362 2463 ft 150 kts
2026-04-29 17:00 51.63380 7.61362 2544 ft 160 kts
2026-04-29 17:00 51.64533 7.61374 2548 ft 170 kts
2026-04-29 17:01 51.65725 7.61451 2545 ft 175 kts 13°
2026-04-29 17:01 51.66922 7.61790 2542 ft 176 kts 19°
2026-04-29 17:01 51.68137 7.62090 2545 ft 180 kts 14°
2026-04-29 17:01 51.69407 7.62263 2549 ft 182 kts 13°
2026-04-29 17:02 51.70672 7.62435 2552 ft 183 kts 15°
2026-04-29 17:02 51.71942 7.62594 2551 ft 183 kts 13°
2026-04-29 17:02 51.73201 7.62778 2558 ft 184 kts 13°
2026-04-29 17:02 51.74481 7.62956 2555 ft 184 kts 13°
2026-04-29 17:03 51.75767 7.63133 2555 ft 184 kts 13°
2026-04-29 17:03 51.77052 7.63316 2557 ft 184 kts 13°
2026-04-29 17:03 51.78334 7.63485 2553 ft 185 kts 13°
2026-04-29 17:03 51.79611 7.63655 2551 ft 185 kts 13°
2026-04-29 17:04 51.80900 7.63825 2554 ft 185 kts 12°
2026-04-29 17:04 51.82170 7.63996 2554 ft 184 kts 13°
2026-04-29 17:04 51.83433 7.64163 2551 ft 181 kts 13°
2026-04-29 17:04 51.84680 7.64319 2547 ft 178 kts 13°
2026-04-29 17:05 51.85919 7.64464 2547 ft 177 kts 12°
2026-04-29 17:05 51.87133 7.64600 2553 ft 176 kts 13°